sensor_id;sensor_type;location;lat;lon;timestamp;P1;durP1;ratioP1;P2;durP2;ratioP2
819;SDS011;392;48.838;2.322;2022-12-18T00:01:20;40.22;;;31.88;;
819;SDS011;392;48.838;2.322;2022-12-18T00:03:51;37.15;;;31.58;;
819;SDS011;392;48.838;2.322;2022-12-18T00:06:21;37.33;;;30.05;;
819;SDS011;392;48.838;2.322;2022-12-18T00:08:51;38.50;;;30.98;;
819;SDS011;392;48.838;2.322;2022-12-18T00:11:20;36.67;;;30.08;;
819;SDS011;392;48.838;2.322;2022-12-18T00:13:49;38.20;;;31.67;;
819;SDS011;392;48.838;2.322;2022-12-18T00:16:19;38.53;;;30.80;;
819;SDS011;392;48.838;2.322;2022-12-18T00:18:49;34.92;;;28.48;;
819;SDS011;392;48.838;2.322;2022-12-18T00:21:19;36.08;;;28.65;;
819;SDS011;392;48.838;2.322;2022-12-18T00:23:48;38.05;;;30.30;;
819;SDS011;392;48.838;2.322;2022-12-18T00:26:18;37.25;;;29.88;;
819;SDS011;392;48.838;2.322;2022-12-18T00:28:52;35.88;;;30.10;;
819;SDS011;392;48.838;2.322;2022-12-18T00:31:21;37.63;;;30.33;;
819;SDS011;392;48.838;2.322;2022-12-18T00:33:53;33.17;;;28.27;;
819;SDS011;392;48.838;2.322;2022-12-18T00:36:22;38.00;;;30.10;;
819;SDS011;392;48.838;2.322;2022-12-18T00:38:51;34.60;;;28.52;;
819;SDS011;392;48.838;2.322;2022-12-18T00:41:22;34.45;;;29.23;;
819;SDS011;392;48.838;2.322;2022-12-18T00:44:09;34.13;;;29.45;;
819;SDS011;392;48.838;2.322;2022-12-18T00:46:38;36.50;;;28.98;;
819;SDS011;392;48.838;2.322;2022-12-18T00:49:06;35.13;;;29.60;;
819;SDS011;392;48.838;2.322;2022-12-18T00:51:34;35.33;;;28.55;;
819;SDS011;392;48.838;2.322;2022-12-18T00:54:01;34.55;;;28.15;;
819;SDS011;392;48.838;2.322;2022-12-18T00:56:31;35.05;;;29.25;;
819;SDS011;392;48.838;2.322;2022-12-18T00:58:58;33.65;;;27.98;;
819;SDS011;392;48.838;2.322;2022-12-18T01:01:26;33.70;;;28.48;;
819;SDS011;392;48.838;2.322;2022-12-18T01:03:53;31.38;;;27.30;;
819;SDS011;392;48.838;2.322;2022-12-18T01:06:21;31.52;;;26.88;;
819;SDS011;392;48.838;2.322;2022-12-18T01:08:48;32.58;;;27.33;;
819;SDS011;392;48.838;2.322;2022-12-18T01:11:16;30.73;;;26.55;;
819;SDS011;392;48.838;2.322;2022-12-18T01:13:47;31.05;;;27.67;;
819;SDS011;392;48.838;2.322;2022-12-18T01:16:15;30.38;;;27.08;;
819;SDS011;392;48.838;2.322;2022-12-18T01:18:43;30.90;;;26.60;;
819;SDS011;392;48.838;2.322;2022-12-18T01:21:12;31.27;;;26.98;;
819;SDS011;392;48.838;2.322;2022-12-18T01:23:41;33.65;;;28.65;;
819;SDS011;392;48.838;2.322;2022-12-18T01:26:12;33.38;;;28.42;;
819;SDS011;392;48.838;2.322;2022-12-18T01:28:42;31.85;;;28.02;;
819;SDS011;392;48.838;2.322;2022-12-18T01:31:13;34.40;;;28.70;;
819;SDS011;392;48.838;2.322;2022-12-18T01:33:46;34.38;;;28.05;;
819;SDS011;392;48.838;2.322;2022-12-18T01:36:17;32.25;;;27.88;;
819;SDS011;392;48.838;2.322;2022-12-18T01:38:46;33.33;;;28.50;;
819;SDS011;392;48.838;2.322;2022-12-18T01:41:15;32.55;;;27.85;;
819;SDS011;392;48.838;2.322;2022-12-18T01:43:46;34.55;;;29.00;;
819;SDS011;392;48.838;2.322;2022-12-18T01:46:19;33.15;;;28.02;;
819;SDS011;392;48.838;2.322;2022-12-18T01:48:49;35.08;;;30.45;;
819;SDS011;392;48.838;2.322;2022-12-18T01:51:19;37.10;;;30.40;;
819;SDS011;392;48.838;2.322;2022-12-18T01:53:47;32.55;;;27.95;;
819;SDS011;392;48.838;2.322;2022-12-18T01:56:17;32.60;;;28.60;;
819;SDS011;392;48.838;2.322;2022-12-18T01:58:52;35.53;;;29.38;;
819;SDS011;392;48.838;2.322;2022-12-18T02:01:25;34.20;;;29.23;;
819;SDS011;392;48.838;2.322;2022-12-18T02:03:53;35.47;;;29.08;;
819;SDS011;392;48.838;2.322;2022-12-18T02:06:23;36.08;;;29.40;;
819;SDS011;392;48.838;2.322;2022-12-18T02:09:02;32.17;;;28.58;;
819;SDS011;392;48.838;2.322;2022-12-18T02:11:39;32.28;;;28.77;;
819;SDS011;392;48.838;2.322;2022-12-18T02:14:17;33.47;;;28.50;;
819;SDS011;392;48.838;2.322;2022-12-18T02:16:57;35.47;;;29.23;;
819;SDS011;392;48.838;2.322;2022-12-18T02:19:39;34.00;;;28.33;;
819;SDS011;392;48.838;2.322;2022-12-18T02:22:17;33.72;;;28.98;;
819;SDS011;392;48.838;2.322;2022-12-18T02:24:57;34.97;;;29.40;;
819;SDS011;392;48.838;2.322;2022-12-18T02:27:40;34.25;;;28.75;;
819;SDS011;392;48.838;2.322;2022-12-18T02:30:10;35.25;;;29.25;;
819;SDS011;392;48.838;2.322;2022-12-18T02:32:40;34.78;;;30.67;;
819;SDS011;392;48.838;2.322;2022-12-18T02:35:15;33.53;;;29.00;;
819;SDS011;392;48.838;2.322;2022-12-18T02:37:50;34.60;;;29.73;;
819;SDS011;392;48.838;2.322;2022-12-18T02:40:20;37.20;;;30.73;;
819;SDS011;392;48.838;2.322;2022-12-18T02:42:52;35.45;;;31.10;;
819;SDS011;392;48.838;2.322;2022-12-18T02:45:20;32.70;;;28.25;;
819;SDS011;392;48.838;2.322;2022-12-18T02:47:48;33.35;;;28.92;;
819;SDS011;392;48.838;2.322;2022-12-18T02:50:18;33.90;;;29.80;;
819;SDS011;392;48.838;2.322;2022-12-18T02:52:55;36.75;;;30.50;;
819;SDS011;392;48.838;2.322;2022-12-18T02:55:39;36.30;;;30.05;;
819;SDS011;392;48.838;2.322;2022-12-18T02:58:20;35.15;;;30.05;;
819;SDS011;392;48.838;2.322;2022-12-18T03:01:01;36.05;;;30.27;;
819;SDS011;392;48.838;2.322;2022-12-18T03:03:34;35.83;;;29.33;;
819;SDS011;392;48.838;2.322;2022-12-18T03:06:07;35.03;;;30.13;;
819;SDS011;392;48.838;2.322;2022-12-18T03:08:42;37.35;;;31.38;;
819;SDS011;392;48.838;2.322;2022-12-18T03:11:13;36.63;;;30.20;;
819;SDS011;392;48.838;2.322;2022-12-18T03:14:03;38.05;;;30.42;;
819;SDS011;392;48.838;2.322;2022-12-18T03:16:33;35.13;;;29.90;;
819;SDS011;392;48.838;2.322;2022-12-18T03:19:05;35.85;;;30.63;;
819;SDS011;392;48.838;2.322;2022-12-18T03:21:38;34.88;;;29.75;;
819;SDS011;392;48.838;2.322;2022-12-18T03:24:09;34.72;;;29.17;;
819;SDS011;392;48.838;2.322;2022-12-18T03:26:39;31.27;;;27.67;;
819;SDS011;392;48.838;2.322;2022-12-18T03:29:17;33.42;;;28.08;;
819;SDS011;392;48.838;2.322;2022-12-18T03:31:49;32.40;;;28.77;;
819;SDS011;392;48.838;2.322;2022-12-18T03:34:23;36.25;;;29.40;;
819;SDS011;392;48.838;2.322;2022-12-18T03:36:59;34.97;;;29.65;;
819;SDS011;392;48.838;2.322;2022-12-18T03:39:31;32.78;;;28.88;;
819;SDS011;392;48.838;2.322;2022-12-18T03:42:01;30.88;;;27.58;;
819;SDS011;392;48.838;2.322;2022-12-18T03:44:40;32.95;;;28.42;;
819;SDS011;392;48.838;2.322;2022-12-18T03:47:19;33.75;;;29.02;;
819;SDS011;392;48.838;2.322;2022-12-18T03:49:56;34.17;;;28.17;;
819;SDS011;392;48.838;2.322;2022-12-18T03:52:33;34.90;;;28.77;;
819;SDS011;392;48.838;2.322;2022-12-18T03:55:06;36.90;;;30.05;;
819;SDS011;392;48.838;2.322;2022-12-18T03:57:34;34.58;;;29.35;;
819;SDS011;392;48.838;2.322;2022-12-18T04:00:07;33.47;;;29.73;;
819;SDS011;392;48.838;2.322;2022-12-18T04:02:50;34.55;;;29.50;;
819;SDS011;392;48.838;2.322;2022-12-18T04:05:29;35.63;;;29.98;;
819;SDS011;392;48.838;2.322;2022-12-18T04:08:00;35.40;;;30.08;;
819;SDS011;392;48.838;2.322;2022-12-18T04:10:31;36.40;;;29.95;;
819;SDS011;392;48.838;2.322;2022-12-18T04:12:59;34.65;;;30.20;;
819;SDS011;392;48.838;2.322;2022-12-18T04:15:29;34.08;;;29.70;;
819;SDS011;392;48.838;2.322;2022-12-18T04:17:58;37.50;;;31.70;;
819;SDS011;392;48.838;2.322;2022-12-18T04:20:34;34.67;;;29.42;;
819;SDS011;392;48.838;2.322;2022-12-18T04:23:02;36.85;;;30.60;;
819;SDS011;392;48.838;2.322;2022-12-18T04:25:29;34.38;;;28.83;;
819;SDS011;392;48.838;2.322;2022-12-18T04:28:06;38.17;;;29.65;;
819;SDS011;392;48.838;2.322;2022-12-18T04:30:36;37.25;;;30.70;;
819;SDS011;392;48.838;2.322;2022-12-18T04:33:07;36.25;;;29.60;;
819;SDS011;392;48.838;2.322;2022-12-18T04:35:36;33.25;;;29.60;;
819;SDS011;392;48.838;2.322;2022-12-18T04:38:05;36.83;;;30.27;;
819;SDS011;392;48.838;2.322;2022-12-18T04:40:33;39.30;;;30.95;;
819;SDS011;392;48.838;2.322;2022-12-18T04:43:03;37.47;;;29.95;;
819;SDS011;392;48.838;2.322;2022-12-18T04:45:31;36.17;;;29.42;;
819;SDS011;392;48.838;2.322;2022-12-18T04:48:01;37.28;;;31.33;;
819;SDS011;392;48.838;2.322;2022-12-18T04:50:29;34.83;;;30.33;;
819;SDS011;392;48.838;2.322;2022-12-18T04:52:57;37.17;;;30.83;;
819;SDS011;392;48.838;2.322;2022-12-18T04:55:24;36.20;;;31.00;;
819;SDS011;392;48.838;2.322;2022-12-18T04:57:52;36.42;;;30.55;;
819;SDS011;392;48.838;2.322;2022-12-18T05:00:20;35.70;;;30.33;;
819;SDS011;392;48.838;2.322;2022-12-18T05:02:47;37.22;;;31.58;;
819;SDS011;392;48.838;2.322;2022-12-18T05:05:16;38.13;;;31.38;;
819;SDS011;392;48.838;2.322;2022-12-18T05:07:43;35.20;;;29.95;;
819;SDS011;392;48.838;2.322;2022-12-18T05:10:11;36.92;;;30.63;;
819;SDS011;392;48.838;2.322;2022-12-18T05:12:38;36.60;;;30.00;;
819;SDS011;392;48.838;2.322;2022-12-18T05:15:23;33.75;;;29.70;;
819;SDS011;392;48.838;2.322;2022-12-18T05:17:52;37.70;;;31.63;;
819;SDS011;392;48.838;2.322;2022-12-18T05:20:21;36.65;;;31.20;;
819;SDS011;392;48.838;2.322;2022-12-18T05:22:48;34.75;;;30.20;;
819;SDS011;392;48.838;2.322;2022-12-18T05:25:16;33.55;;;29.85;;
819;SDS011;392;48.838;2.322;2022-12-18T05:27:44;33.63;;;29.92;;
819;SDS011;392;48.838;2.322;2022-12-18T05:30:11;37.80;;;31.70;;
819;SDS011;392;48.838;2.322;2022-12-18T05:32:40;37.13;;;30.80;;
819;SDS011;392;48.838;2.322;2022-12-18T05:35:08;33.53;;;28.73;;
819;SDS011;392;48.838;2.322;2022-12-18T05:37:38;35.97;;;29.98;;
819;SDS011;392;48.838;2.322;2022-12-18T05:40:06;32.55;;;29.02;;
819;SDS011;392;48.838;2.322;2022-12-18T05:42:34;33.75;;;28.80;;
819;SDS011;392;48.838;2.322;2022-12-18T05:45:02;34.20;;;28.83;;
819;SDS011;392;48.838;2.322;2022-12-18T05:47:31;37.03;;;30.42;;
819;SDS011;392;48.838;2.322;2022-12-18T05:49:59;36.70;;;30.67;;
819;SDS011;392;48.838;2.322;2022-12-18T05:52:26;35.40;;;29.40;;
819;SDS011;392;48.838;2.322;2022-12-18T05:54:55;33.90;;;28.95;;
819;SDS011;392;48.838;2.322;2022-12-18T05:57:22;34.22;;;30.35;;
819;SDS011;392;48.838;2.322;2022-12-18T05:59:49;35.10;;;29.63;;
819;SDS011;392;48.838;2.322;2022-12-18T06:02:17;35.95;;;29.67;;
819;SDS011;392;48.838;2.322;2022-12-18T06:04:46;35.28;;;30.27;;
819;SDS011;392;48.838;2.322;2022-12-18T06:07:13;33.03;;;27.92;;
819;SDS011;392;48.838;2.322;2022-12-18T06:09:41;34.50;;;29.63;;
819;SDS011;392;48.838;2.322;2022-12-18T06:12:09;34.25;;;28.85;;
819;SDS011;392;48.838;2.322;2022-12-18T06:14:37;33.15;;;28.77;;
819;SDS011;392;48.838;2.322;2022-12-18T06:17:04;32.90;;;27.85;;
819;SDS011;392;48.838;2.322;2022-12-18T06:19:32;33.67;;;29.15;;
819;SDS011;392;48.838;2.322;2022-12-18T06:21:59;33.85;;;28.50;;
819;SDS011;392;48.838;2.322;2022-12-18T06:24:27;33.50;;;28.33;;
819;SDS011;392;48.838;2.322;2022-12-18T06:26:54;33.85;;;27.98;;
819;SDS011;392;48.838;2.322;2022-12-18T06:29:24;35.25;;;29.05;;
819;SDS011;392;48.838;2.322;2022-12-18T06:31:51;35.00;;;29.10;;
819;SDS011;392;48.838;2.322;2022-12-18T06:34:18;33.63;;;28.48;;
819;SDS011;392;48.838;2.322;2022-12-18T06:36:45;34.95;;;28.83;;
819;SDS011;392;48.838;2.322;2022-12-18T06:39:13;35.03;;;29.50;;
819;SDS011;392;48.838;2.322;2022-12-18T06:41:40;32.60;;;28.42;;
819;SDS011;392;48.838;2.322;2022-12-18T06:44:07;33.42;;;28.42;;
819;SDS011;392;48.838;2.322;2022-12-18T06:46:36;35.42;;;28.17;;
819;SDS011;392;48.838;2.322;2022-12-18T06:49:04;34.78;;;29.30;;
819;SDS011;392;48.838;2.322;2022-12-18T06:51:32;34.85;;;28.42;;
819;SDS011;392;48.838;2.322;2022-12-18T06:53:59;33.90;;;28.88;;
819;SDS011;392;48.838;2.322;2022-12-18T06:56:26;39.30;;;30.33;;
819;SDS011;392;48.838;2.322;2022-12-18T06:58:54;34.95;;;29.02;;
819;SDS011;392;48.838;2.322;2022-12-18T07:01:22;32.80;;;28.25;;
819;SDS011;392;48.838;2.322;2022-12-18T07:03:52;33.30;;;27.65;;
819;SDS011;392;48.838;2.322;2022-12-18T07:06:21;33.17;;;27.85;;
819;SDS011;392;48.838;2.322;2022-12-18T07:08:51;33.78;;;28.23;;
819;SDS011;392;48.838;2.322;2022-12-18T07:11:20;34.13;;;27.77;;
819;SDS011;392;48.838;2.322;2022-12-18T07:13:48;34.65;;;28.98;;
819;SDS011;392;48.838;2.322;2022-12-18T07:16:15;35.17;;;28.23;;
819;SDS011;392;48.838;2.322;2022-12-18T07:18:44;33.15;;;28.00;;
819;SDS011;392;48.838;2.322;2022-12-18T07:21:15;34.22;;;29.17;;
819;SDS011;392;48.838;2.322;2022-12-18T07:23:44;32.67;;;27.45;;
819;SDS011;392;48.838;2.322;2022-12-18T07:26:13;32.30;;;28.20;;
819;SDS011;392;48.838;2.322;2022-12-18T07:28:43;35.30;;;29.52;;
819;SDS011;392;48.838;2.322;2022-12-18T07:31:10;33.30;;;27.85;;
819;SDS011;392;48.838;2.322;2022-12-18T07:33:39;35.10;;;29.42;;
819;SDS011;392;48.838;2.322;2022-12-18T07:36:07;31.95;;;28.17;;
819;SDS011;392;48.838;2.322;2022-12-18T07:38:38;32.92;;;28.20;;
819;SDS011;392;48.838;2.322;2022-12-18T07:41:07;33.65;;;27.85;;
819;SDS011;392;48.838;2.322;2022-12-18T07:43:36;30.88;;;27.48;;
819;SDS011;392;48.838;2.322;2022-12-18T07:46:05;32.35;;;26.83;;
819;SDS011;392;48.838;2.322;2022-12-18T07:48:34;32.15;;;26.77;;
819;SDS011;392;48.838;2.322;2022-12-18T07:51:02;32.13;;;27.55;;
819;SDS011;392;48.838;2.322;2022-12-18T07:53:32;28.55;;;25.42;;
819;SDS011;392;48.838;2.322;2022-12-18T07:56:03;31.50;;;26.30;;
819;SDS011;392;48.838;2.322;2022-12-18T07:58:35;32.85;;;27.75;;
819;SDS011;392;48.838;2.322;2022-12-18T08:01:04;33.55;;;27.17;;
819;SDS011;392;48.838;2.322;2022-12-18T08:03:32;31.30;;;26.58;;
819;SDS011;392;48.838;2.322;2022-12-18T08:06:00;30.67;;;26.75;;
819;SDS011;392;48.838;2.322;2022-12-18T08:08:28;31.10;;;26.15;;
819;SDS011;392;48.838;2.322;2022-12-18T08:10:56;32.10;;;27.05;;
819;SDS011;392;48.838;2.322;2022-12-18T08:13:26;30.88;;;26.88;;
819;SDS011;392;48.838;2.322;2022-12-18T08:15:56;30.02;;;26.02;;
819;SDS011;392;48.838;2.322;2022-12-18T08:18:24;29.55;;;26.35;;
819;SDS011;392;48.838;2.322;2022-12-18T08:20:52;31.35;;;27.27;;
819;SDS011;392;48.838;2.322;2022-12-18T08:23:20;33.28;;;26.95;;
819;SDS011;392;48.838;2.322;2022-12-18T08:25:47;32.17;;;27.20;;
819;SDS011;392;48.838;2.322;2022-12-18T08:28:16;34.58;;;27.27;;
819;SDS011;392;48.838;2.322;2022-12-18T08:30:45;33.88;;;27.88;;
819;SDS011;392;48.838;2.322;2022-12-18T08:33:12;32.85;;;26.83;;
819;SDS011;392;48.838;2.322;2022-12-18T08:35:39;34.22;;;28.20;;
819;SDS011;392;48.838;2.322;2022-12-18T08:38:07;34.83;;;28.48;;
819;SDS011;392;48.838;2.322;2022-12-18T08:40:35;34.28;;;27.63;;
819;SDS011;392;48.838;2.322;2022-12-18T08:43:02;34.15;;;28.00;;
819;SDS011;392;48.838;2.322;2022-12-18T08:45:48;33.65;;;27.85;;
819;SDS011;392;48.838;2.322;2022-12-18T08:48:16;31.08;;;26.90;;
819;SDS011;392;48.838;2.322;2022-12-18T08:50:43;32.95;;;27.15;;
819;SDS011;392;48.838;2.322;2022-12-18T08:53:10;33.05;;;27.50;;
819;SDS011;392;48.838;2.322;2022-12-18T08:55:38;30.90;;;26.60;;
819;SDS011;392;48.838;2.322;2022-12-18T08:58:05;30.83;;;26.75;;
819;SDS011;392;48.838;2.322;2022-12-18T09:00:33;32.38;;;26.90;;
819;SDS011;392;48.838;2.322;2022-12-18T09:03:02;32.97;;;27.13;;
819;SDS011;392;48.838;2.322;2022-12-18T09:05:29;33.22;;;26.55;;
819;SDS011;392;48.838;2.322;2022-12-18T09:07:57;31.75;;;27.00;;
819;SDS011;392;48.838;2.322;2022-12-18T09:10:24;29.92;;;26.42;;
819;SDS011;392;48.838;2.322;2022-12-18T09:12:51;31.38;;;24.90;;
819;SDS011;392;48.838;2.322;2022-12-18T09:15:19;31.05;;;26.17;;
819;SDS011;392;48.838;2.322;2022-12-18T09:17:46;28.63;;;24.38;;
819;SDS011;392;48.838;2.322;2022-12-18T09:20:16;30.23;;;25.27;;
819;SDS011;392;48.838;2.322;2022-12-18T09:22:44;28.15;;;23.95;;
819;SDS011;392;48.838;2.322;2022-12-18T09:25:11;30.65;;;25.25;;
819;SDS011;392;48.838;2.322;2022-12-18T09:27:39;28.17;;;24.80;;
819;SDS011;392;48.838;2.322;2022-12-18T09:30:07;32.80;;;26.55;;
819;SDS011;392;48.838;2.322;2022-12-18T09:32:35;30.55;;;25.75;;
819;SDS011;392;48.838;2.322;2022-12-18T09:35:03;31.70;;;25.80;;
819;SDS011;392;48.838;2.322;2022-12-18T09:37:33;30.90;;;27.02;;
819;SDS011;392;48.838;2.322;2022-12-18T09:40:00;29.20;;;26.00;;
819;SDS011;392;48.838;2.322;2022-12-18T09:42:28;29.90;;;26.73;;
819;SDS011;392;48.838;2.322;2022-12-18T09:44:55;30.90;;;26.77;;
819;SDS011;392;48.838;2.322;2022-12-18T09:47:25;30.88;;;26.55;;
819;SDS011;392;48.838;2.322;2022-12-18T09:49:58;32.17;;;27.55;;
819;SDS011;392;48.838;2.322;2022-12-18T09:52:29;32.13;;;26.73;;
819;SDS011;392;48.838;2.322;2022-12-18T09:55:03;33.10;;;27.42;;
819;SDS011;392;48.838;2.322;2022-12-18T09:57:37;33.35;;;27.52;;
819;SDS011;392;48.838;2.322;2022-12-18T10:00:17;32.38;;;27.15;;
819;SDS011;392;48.838;2.322;2022-12-18T10:02:48;36.13;;;28.77;;
819;SDS011;392;48.838;2.322;2022-12-18T10:05:20;30.27;;;26.27;;
819;SDS011;392;48.838;2.322;2022-12-18T10:08:01;30.73;;;26.42;;
819;SDS011;392;48.838;2.322;2022-12-18T10:10:37;33.03;;;26.80;;
819;SDS011;392;48.838;2.322;2022-12-18T10:13:10;30.85;;;25.50;;
819;SDS011;392;48.838;2.322;2022-12-18T10:15:52;30.83;;;26.50;;
819;SDS011;392;48.838;2.322;2022-12-18T10:18:34;32.05;;;26.08;;
819;SDS011;392;48.838;2.322;2022-12-18T10:21:15;32.03;;;26.15;;
819;SDS011;392;48.838;2.322;2022-12-18T10:23:51;32.35;;;26.65;;
819;SDS011;392;48.838;2.322;2022-12-18T10:26:29;32.53;;;26.30;;
819;SDS011;392;48.838;2.322;2022-12-18T10:28:59;35.13;;;28.10;;
819;SDS011;392;48.838;2.322;2022-12-18T10:31:28;30.35;;;25.92;;
819;SDS011;392;48.838;2.322;2022-12-18T10:33:55;30.92;;;26.00;;
819;SDS011;392;48.838;2.322;2022-12-18T10:36:23;31.83;;;26.98;;
819;SDS011;392;48.838;2.322;2022-12-18T10:38:52;30.60;;;26.60;;
819;SDS011;392;48.838;2.322;2022-12-18T10:41:23;31.00;;;25.45;;
819;SDS011;392;48.838;2.322;2022-12-18T10:44:11;31.08;;;26.83;;
819;SDS011;392;48.838;2.322;2022-12-18T10:46:43;32.45;;;27.00;;
819;SDS011;392;48.838;2.322;2022-12-18T10:49:18;34.42;;;27.17;;
819;SDS011;392;48.838;2.322;2022-12-18T10:51:50;32.30;;;26.35;;
819;SDS011;392;48.838;2.322;2022-12-18T10:54:33;30.23;;;25.35;;
819;SDS011;392;48.838;2.322;2022-12-18T10:57:14;30.67;;;26.30;;
819;SDS011;392;48.838;2.322;2022-12-18T10:59:51;32.47;;;27.73;;
819;SDS011;392;48.838;2.322;2022-12-18T11:02:28;30.77;;;26.30;;
819;SDS011;392;48.838;2.322;2022-12-18T11:05:01;31.13;;;25.83;;
819;SDS011;392;48.838;2.322;2022-12-18T11:07:46;31.38;;;25.75;;
819;SDS011;392;48.838;2.322;2022-12-18T11:10:18;33.88;;;27.48;;
819;SDS011;392;48.838;2.322;2022-12-18T11:12:46;30.80;;;25.90;;
819;SDS011;392;48.838;2.322;2022-12-18T11:15:15;29.33;;;24.55;;
819;SDS011;392;48.838;2.322;2022-12-18T11:17:46;29.50;;;26.20;;
819;SDS011;392;48.838;2.322;2022-12-18T11:20:20;31.48;;;26.60;;
819;SDS011;392;48.838;2.322;2022-12-18T11:22:57;32.00;;;26.85;;
819;SDS011;392;48.838;2.322;2022-12-18T11:25:28;32.15;;;26.00;;
819;SDS011;392;48.838;2.322;2022-12-18T11:27:57;34.70;;;26.10;;
819;SDS011;392;48.838;2.322;2022-12-18T11:30:27;32.67;;;26.92;;
819;SDS011;392;48.838;2.322;2022-12-18T11:33:02;32.28;;;26.52;;
819;SDS011;392;48.838;2.322;2022-12-18T11:35:37;33.45;;;27.30;;
819;SDS011;392;48.838;2.322;2022-12-18T11:38:21;28.30;;;24.55;;
819;SDS011;392;48.838;2.322;2022-12-18T11:40:53;28.35;;;23.92;;
819;SDS011;392;48.838;2.322;2022-12-18T11:43:27;30.60;;;25.85;;
819;SDS011;392;48.838;2.322;2022-12-18T11:45:59;31.42;;;26.50;;
819;SDS011;392;48.838;2.322;2022-12-18T11:48:32;31.55;;;25.80;;
819;SDS011;392;48.838;2.322;2022-12-18T11:51:09;34.95;;;27.42;;
819;SDS011;392;48.838;2.322;2022-12-18T11:53:44;31.42;;;26.40;;
819;SDS011;392;48.838;2.322;2022-12-18T11:56:18;30.83;;;26.08;;
819;SDS011;392;48.838;2.322;2022-12-18T11:58:59;31.00;;;26.63;;
819;SDS011;392;48.838;2.322;2022-12-18T12:01:39;34.90;;;27.67;;
819;SDS011;392;48.838;2.322;2022-12-18T12:04:29;34.15;;;27.65;;
819;SDS011;392;48.838;2.322;2022-12-18T12:07:43;32.13;;;26.38;;
819;SDS011;392;48.838;2.322;2022-12-18T12:10:24;30.70;;;26.45;;
819;SDS011;392;48.838;2.322;2022-12-18T12:13:10;33.03;;;25.77;;
819;SDS011;392;48.838;2.322;2022-12-18T12:15:54;31.38;;;26.23;;
819;SDS011;392;48.838;2.322;2022-12-18T12:18:41;29.85;;;25.50;;
819;SDS011;392;48.838;2.322;2022-12-18T12:21:39;31.20;;;26.15;;
819;SDS011;392;48.838;2.322;2022-12-18T12:24:12;30.10;;;24.70;;
819;SDS011;392;48.838;2.322;2022-12-18T12:26:55;31.45;;;26.13;;
819;SDS011;392;48.838;2.322;2022-12-18T12:29:36;31.67;;;25.20;;
819;SDS011;392;48.838;2.322;2022-12-18T12:32:20;36.05;;;27.27;;
819;SDS011;392;48.838;2.322;2022-12-18T12:35:07;31.35;;;25.10;;
819;SDS011;392;48.838;2.322;2022-12-18T12:37:49;30.70;;;24.73;;
819;SDS011;392;48.838;2.322;2022-12-18T12:40:27;29.70;;;24.25;;
819;SDS011;392;48.838;2.322;2022-12-18T12:42:58;31.35;;;24.58;;
819;SDS011;392;48.838;2.322;2022-12-18T12:45:40;31.27;;;24.02;;
819;SDS011;392;48.838;2.322;2022-12-18T12:48:16;31.17;;;23.88;;
819;SDS011;392;48.838;2.322;2022-12-18T12:50:53;27.98;;;23.23;;
819;SDS011;392;48.838;2.322;2022-12-18T12:53:25;29.23;;;23.23;;
819;SDS011;392;48.838;2.322;2022-12-18T12:55:57;28.63;;;22.55;;
819;SDS011;392;48.838;2.322;2022-12-18T12:58:27;30.92;;;23.60;;
819;SDS011;392;48.838;2.322;2022-12-18T13:01:08;32.70;;;24.23;;
819;SDS011;392;48.838;2.322;2022-12-18T13:03:46;32.15;;;23.40;;
819;SDS011;392;48.838;2.322;2022-12-18T13:06:29;29.55;;;22.77;;
819;SDS011;392;48.838;2.322;2022-12-18T13:09:06;32.00;;;23.00;;
819;SDS011;392;48.838;2.322;2022-12-18T13:11:35;27.70;;;23.50;;
819;SDS011;392;48.838;2.322;2022-12-18T13:14:31;27.70;;;22.30;;
819;SDS011;392;48.838;2.322;2022-12-18T13:17:15;28.58;;;23.42;;
819;SDS011;392;48.838;2.322;2022-12-18T13:20:04;29.25;;;23.45;;
819;SDS011;392;48.838;2.322;2022-12-18T13:22:40;29.15;;;22.42;;
819;SDS011;392;48.838;2.322;2022-12-18T13:25:26;30.65;;;22.13;;
819;SDS011;392;48.838;2.322;2022-12-18T13:28:00;27.58;;;22.70;;
819;SDS011;392;48.838;2.322;2022-12-18T13:30:48;25.42;;;21.35;;
819;SDS011;392;48.838;2.322;2022-12-18T13:36:25;34.05;;;22.63;;
819;SDS011;392;48.838;2.322;2022-12-18T13:45:38;31.65;;;23.35;;
819;SDS011;392;48.838;2.322;2022-12-18T13:48:19;26.35;;;21.35;;
819;SDS011;392;48.838;2.322;2022-12-18T13:50:53;30.70;;;23.40;;
819;SDS011;392;48.838;2.322;2022-12-18T13:53:26;29.63;;;22.45;;
819;SDS011;392;48.838;2.322;2022-12-18T13:55:59;28.40;;;22.17;;
819;SDS011;392;48.838;2.322;2022-12-18T13:58:27;28.80;;;23.33;;
819;SDS011;392;48.838;2.322;2022-12-18T14:00:54;29.23;;;23.77;;
819;SDS011;392;48.838;2.322;2022-12-18T14:03:25;29.10;;;21.95;;
819;SDS011;392;48.838;2.322;2022-12-18T14:06:01;30.85;;;23.17;;
819;SDS011;392;48.838;2.322;2022-12-18T14:08:34;31.90;;;24.65;;
819;SDS011;392;48.838;2.322;2022-12-18T14:11:05;29.80;;;24.08;;
819;SDS011;392;48.838;2.322;2022-12-18T14:13:36;31.02;;;24.27;;
819;SDS011;392;48.838;2.322;2022-12-18T14:16:11;29.90;;;23.13;;
819;SDS011;392;48.838;2.322;2022-12-18T14:18:44;28.58;;;22.88;;
819;SDS011;392;48.838;2.322;2022-12-18T14:21:18;29.70;;;24.05;;
819;SDS011;392;48.838;2.322;2022-12-18T14:24:00;29.30;;;24.17;;
819;SDS011;392;48.838;2.322;2022-12-18T14:26:32;30.52;;;24.33;;
819;SDS011;392;48.838;2.322;2022-12-18T14:29:00;30.65;;;23.80;;
819;SDS011;392;48.838;2.322;2022-12-18T14:31:46;31.25;;;25.05;;
819;SDS011;392;48.838;2.322;2022-12-18T14:34:31;28.48;;;23.10;;
819;SDS011;392;48.838;2.322;2022-12-18T14:36:59;29.40;;;23.52;;
819;SDS011;392;48.838;2.322;2022-12-18T14:39:27;33.70;;;25.67;;
819;SDS011;392;48.838;2.322;2022-12-18T14:41:55;26.75;;;22.40;;
819;SDS011;392;48.838;2.322;2022-12-18T14:44:22;37.67;;;31.75;;
819;SDS011;392;48.838;2.322;2022-12-18T14:46:50;35.13;;;27.35;;
819;SDS011;392;48.838;2.322;2022-12-18T14:49:19;32.65;;;24.25;;
819;SDS011;392;48.838;2.322;2022-12-18T14:51:53;30.80;;;26.08;;
819;SDS011;392;48.838;2.322;2022-12-18T14:54:24;29.30;;;24.98;;
819;SDS011;392;48.838;2.322;2022-12-18T14:56:54;32.80;;;25.73;;
819;SDS011;392;48.838;2.322;2022-12-18T14:59:26;31.17;;;24.95;;
819;SDS011;392;48.838;2.322;2022-12-18T15:01:59;29.45;;;23.52;;
819;SDS011;392;48.838;2.322;2022-12-18T15:04:35;26.60;;;23.42;;
819;SDS011;392;48.838;2.322;2022-12-18T15:07:07;29.55;;;24.88;;
819;SDS011;392;48.838;2.322;2022-12-18T15:09:41;37.00;;;31.60;;
819;SDS011;392;48.838;2.322;2022-12-18T15:12:19;31.63;;;25.85;;
819;SDS011;392;48.838;2.322;2022-12-18T15:14:53;27.98;;;22.70;;
819;SDS011;392;48.838;2.322;2022-12-18T15:17:21;32.17;;;26.65;;
819;SDS011;392;48.838;2.322;2022-12-18T15:19:51;33.17;;;24.38;;
819;SDS011;392;48.838;2.322;2022-12-18T15:22:26;34.72;;;28.70;;
819;SDS011;392;48.838;2.322;2022-12-18T15:24:56;30.75;;;25.27;;
819;SDS011;392;48.838;2.322;2022-12-18T15:27:26;28.70;;;23.50;;
819;SDS011;392;48.838;2.322;2022-12-18T15:30:16;28.58;;;23.30;;
819;SDS011;392;48.838;2.322;2022-12-18T15:32:50;28.15;;;23.20;;
819;SDS011;392;48.838;2.322;2022-12-18T15:35:20;31.15;;;23.27;;
819;SDS011;392;48.838;2.322;2022-12-18T15:37:49;29.10;;;24.55;;
819;SDS011;392;48.838;2.322;2022-12-18T15:40:20;35.05;;;27.60;;
819;SDS011;392;48.838;2.322;2022-12-18T15:42:51;29.75;;;23.15;;
819;SDS011;392;48.838;2.322;2022-12-18T15:45:38;29.58;;;24.88;;
819;SDS011;392;48.838;2.322;2022-12-18T15:48:10;30.50;;;24.77;;
819;SDS011;392;48.838;2.322;2022-12-18T15:50:46;32.40;;;26.65;;
819;SDS011;392;48.838;2.322;2022-12-18T15:53:15;29.35;;;25.15;;
819;SDS011;392;48.838;2.322;2022-12-18T15:55:44;34.20;;;26.77;;